sensor_id;sensor_type;location;lat;lon;timestamp;pressure;altitude;pressure_sealevel;temperature;humidity
33189;BME280;52601;53.070;10.600;2023-08-07T00:00:25;100338.78;;;17.30;100.00
33189;BME280;52601;53.070;10.600;2023-08-07T00:03:10;100338.53;;;17.33;100.00
33189;BME280;52601;53.070;10.600;2023-08-07T00:05:56;100342.25;;;17.30;100.00
33189;BME280;52601;53.070;10.600;2023-08-07T00:08:42;100346.13;;;17.26;100.00
33189;BME280;52601;53.070;10.600;2023-08-07T00:11:27;100348.41;;;17.31;100.00
33189;BME280;52601;53.070;10.600;2023-08-07T00:14:13;100349.41;;;17.30;100.00
33189;BME280;52601;53.070;10.600;2023-08-07T00:16:59;100344.59;;;17.23;100.00
33189;BME280;52601;53.070;10.600;2023-08-07T00:19:44;100342.56;;;17.16;100.00
33189;BME280;52601;53.070;10.600;2023-08-07T00:22:29;100348.31;;;17.21;100.00
33189;BME280;52601;53.070;10.600;2023-08-07T00:25:15;100356.16;;;17.22;100.00
33189;BME280;52601;53.070;10.600;2023-08-07T00:28:00;100352.56;;;17.23;100.00
33189;BME280;52601;53.070;10.600;2023-08-07T00:30:45;100344.91;;;17.30;100.00
33189;BME280;52601;53.070;10.600;2023-08-07T00:33:31;100354.94;;;17.27;100.00
33189;BME280;52601;53.070;10.600;2023-08-07T00:36:16;100352.38;;;17.36;100.00
33189;BME280;52601;53.070;10.600;2023-08-07T00:39:02;100343.38;;;17.28;100.00
33189;BME280;52601;53.070;10.600;2023-08-07T00:41:48;100339.81;;;17.38;100.00
33189;BME280;52601;53.070;10.600;2023-08-07T00:44:34;100348.41;;;17.31;100.00
33189;BME280;52601;53.070;10.600;2023-08-07T00:47:19;100345.41;;;17.35;100.00
33189;BME280;52601;53.070;10.600;2023-08-07T00:50:05;100348.91;;;17.36;100.00
33189;BME280;52601;53.070;10.600;2023-08-07T00:52:52;100341.75;;;17.36;100.00
33189;BME280;52601;53.070;10.600;2023-08-07T00:55:37;100345.91;;;17.29;100.00
33189;BME280;52601;53.070;10.600;2023-08-07T00:58:23;100341.03;;;17.34;100.00
33189;BME280;52601;53.070;10.600;2023-08-07T01:01:08;100337.00;;;17.62;100.00
33189;BME280;52601;53.070;10.600;2023-08-07T01:03:54;100330.22;;;17.69;100.00
33189;BME280;52601;53.070;10.600;2023-08-07T01:06:40;100325.50;;;17.72;100.00
33189;BME280;52601;53.070;10.600;2023-08-07T01:09:25;100313.84;;;17.64;100.00
33189;BME280;52601;53.070;10.600;2023-08-07T01:12:21;100315.78;;;17.62;100.00
33189;BME280;52601;53.070;10.600;2023-08-07T01:15:12;100321.06;;;17.62;100.00
33189;BME280;52601;53.070;10.600;2023-08-07T01:17:59;100314.25;;;17.59;100.00
33189;BME280;52601;53.070;10.600;2023-08-07T01:20:45;100314.66;;;17.44;100.00
33189;BME280;52601;53.070;10.600;2023-08-07T01:23:30;100324.34;;;17.22;100.00
33189;BME280;52601;53.070;10.600;2023-08-07T01:26:17;100331.63;;;17.09;100.00
33189;BME280;52601;53.070;10.600;2023-08-07T01:29:06;100324.72;;;17.18;100.00
33189;BME280;52601;53.070;10.600;2023-08-07T01:31:55;100331.97;;;17.16;100.00
33189;BME280;52601;53.070;10.600;2023-08-07T01:34:41;100326.03;;;17.23;100.00
33189;BME280;52601;53.070;10.600;2023-08-07T01:37:27;100311.19;;;17.32;100.00
33189;BME280;52601;53.070;10.600;2023-08-07T01:40:14;100309.94;;;17.36;100.00
33189;BME280;52601;53.070;10.600;2023-08-07T01:43:00;100302.63;;;17.29;100.00
33189;BME280;52601;53.070;10.600;2023-08-07T01:45:45;100303.50;;;17.29;100.00
33189;BME280;52601;53.070;10.600;2023-08-07T01:48:31;100303.22;;;17.32;100.00
33189;BME280;52601;53.070;10.600;2023-08-07T01:51:17;100307.84;;;17.19;100.00
33189;BME280;52601;53.070;10.600;2023-08-07T01:54:02;100311.16;;;17.11;100.00
33189;BME280;52601;53.070;10.600;2023-08-07T01:56:48;100310.66;;;17.06;100.00
33189;BME280;52601;53.070;10.600;2023-08-07T01:59:33;100313.56;;;17.03;100.00
33189;BME280;52601;53.070;10.600;2023-08-07T02:02:18;100305.88;;;17.32;100.00
33189;BME280;52601;53.070;10.600;2023-08-07T02:05:04;100298.84;;;17.10;100.00
33189;BME280;52601;53.070;10.600;2023-08-07T02:07:49;100303.44;;;17.08;100.00
33189;BME280;52601;53.070;10.600;2023-08-07T02:10:34;100305.63;;;17.03;100.00
33189;BME280;52601;53.070;10.600;2023-08-07T02:13:20;100301.97;;;17.15;100.00
33189;BME280;52601;53.070;10.600;2023-08-07T02:16:05;100297.25;;;17.19;100.00
33189;BME280;52601;53.070;10.600;2023-08-07T02:18:51;100286.31;;;17.12;100.00
33189;BME280;52601;53.070;10.600;2023-08-07T02:21:37;100288.09;;;17.23;100.00
33189;BME280;52601;53.070;10.600;2023-08-07T02:24:22;100284.59;;;17.22;100.00
33189;BME280;52601;53.070;10.600;2023-08-07T02:27:07;100275.47;;;17.15;100.00
33189;BME280;52601;53.070;10.600;2023-08-07T02:29:53;100278.13;;;17.15;100.00
33189;BME280;52601;53.070;10.600;2023-08-07T02:32:39;100298.56;;;17.24;100.00
33189;BME280;52601;53.070;10.600;2023-08-07T02:35:26;100295.91;;;17.24;100.00
33189;BME280;52601;53.070;10.600;2023-08-07T02:38:12;100306.28;;;17.28;100.00
33189;BME280;52601;53.070;10.600;2023-08-07T02:40:57;100305.78;;;17.22;100.00
33189;BME280;52601;53.070;10.600;2023-08-07T02:43:43;100306.47;;;17.36;100.00
33189;BME280;52601;53.070;10.600;2023-08-07T02:46:28;100303.41;;;17.19;100.00
33189;BME280;52601;53.070;10.600;2023-08-07T02:49:13;100299.41;;;17.25;100.00
33189;BME280;52601;53.070;10.600;2023-08-07T02:51:59;100311.56;;;17.28;100.00
33189;BME280;52601;53.070;10.600;2023-08-07T02:54:44;100303.31;;;17.10;100.00
33189;BME280;52601;53.070;10.600;2023-08-07T02:57:29;100315.94;;;17.17;100.00
33189;BME280;52601;53.070;10.600;2023-08-07T03:00:15;100331.03;;;16.95;100.00
33189;BME280;52601;53.070;10.600;2023-08-07T03:03:01;100336.34;;;16.95;100.00
33189;BME280;52601;53.070;10.600;2023-08-07T03:05:49;100341.25;;;17.10;100.00
33189;BME280;52601;53.070;10.600;2023-08-07T03:08:35;100331.50;;;17.11;100.00
33189;BME280;52601;53.070;10.600;2023-08-07T03:11:20;100324.13;;;17.14;100.00
33189;BME280;52601;53.070;10.600;2023-08-07T03:14:06;100321.63;;;17.13;100.00
33189;BME280;52601;53.070;10.600;2023-08-07T03:16:52;100321.91;;;16.88;100.00
33189;BME280;52601;53.070;10.600;2023-08-07T03:19:39;100326.97;;;16.69;100.00
33189;BME280;52601;53.070;10.600;2023-08-07T03:22:25;100338.06;;;16.74;100.00
33189;BME280;52601;53.070;10.600;2023-08-07T03:25:10;100337.00;;;16.65;100.00
33189;BME280;52601;53.070;10.600;2023-08-07T03:27:56;100345.66;;;16.67;100.00
33189;BME280;52601;53.070;10.600;2023-08-07T03:30:41;100338.78;;;16.65;100.00
33189;BME280;52601;53.070;10.600;2023-08-07T03:33:26;100335.06;;;16.67;100.00
33189;BME280;52601;53.070;10.600;2023-08-07T03:36:12;100341.50;;;17.07;100.00
33189;BME280;52601;53.070;10.600;2023-08-07T03:38:57;100326.25;;;17.00;100.00
33189;BME280;52601;53.070;10.600;2023-08-07T03:41:42;100325.31;;;17.21;100.00
33189;BME280;52601;53.070;10.600;2023-08-07T03:44:28;100320.97;;;16.78;100.00
33189;BME280;52601;53.070;10.600;2023-08-07T03:47:13;100310.94;;;16.92;100.00
33189;BME280;52601;53.070;10.600;2023-08-07T03:49:59;100317.84;;;16.73;100.00
33189;BME280;52601;53.070;10.600;2023-08-07T03:52:44;100320.84;;;16.79;100.00
33189;BME280;52601;53.070;10.600;2023-08-07T03:55:30;100334.84;;;17.13;100.00
33189;BME280;52601;53.070;10.600;2023-08-07T03:58:15;100314.69;;;17.33;100.00
33189;BME280;52601;53.070;10.600;2023-08-07T04:01:01;100307.91;;;17.40;100.00
33189;BME280;52601;53.070;10.600;2023-08-07T04:03:46;100303.69;;;17.37;100.00
33189;BME280;52601;53.070;10.600;2023-08-07T04:06:32;100302.09;;;17.46;100.00
33189;BME280;52601;53.070;10.600;2023-08-07T04:09:17;100293.75;;;17.30;100.00
33189;BME280;52601;53.070;10.600;2023-08-07T04:12:03;100303.78;;;17.58;100.00
33189;BME280;52601;53.070;10.600;2023-08-07T04:14:48;100297.75;;;17.76;100.00
33189;BME280;52601;53.070;10.600;2023-08-07T04:17:33;100299.53;;;17.76;100.00
33189;BME280;52601;53.070;10.600;2023-08-07T04:20:19;100294.72;;;17.81;100.00
33189;BME280;52601;53.070;10.600;2023-08-07T04:23:05;100288.59;;;17.90;100.00
33189;BME280;52601;53.070;10.600;2023-08-07T04:25:51;100286.75;;;17.81;100.00
33189;BME280;52601;53.070;10.600;2023-08-07T04:28:37;100290.81;;;17.85;100.00
33189;BME280;52601;53.070;10.600;2023-08-07T04:31:23;100289.31;;;17.92;100.00
33189;BME280;52601;53.070;10.600;2023-08-07T04:34:08;100287.38;;;17.94;100.00
33189;BME280;52601;53.070;10.600;2023-08-07T04:36:54;100292.81;;;17.92;100.00
33189;BME280;52601;53.070;10.600;2023-08-07T04:39:41;100294.00;;;17.99;100.00
33189;BME280;52601;53.070;10.600;2023-08-07T04:42:27;100286.75;;;18.01;100.00
33189;BME280;52601;53.070;10.600;2023-08-07T04:45:13;100293.69;;;18.23;100.00
33189;BME280;52601;53.070;10.600;2023-08-07T04:47:58;100284.38;;;18.38;100.00
33189;BME280;52601;53.070;10.600;2023-08-07T04:50:43;100279.34;;;18.05;100.00
33189;BME280;52601;53.070;10.600;2023-08-07T04:53:29;100280.19;;;18.36;100.00
33189;BME280;52601;53.070;10.600;2023-08-07T04:56:14;100275.97;;;18.63;100.00
33189;BME280;52601;53.070;10.600;2023-08-07T04:59:00;100278.06;;;18.60;100.00
33189;BME280;52601;53.070;10.600;2023-08-07T05:01:48;100281.97;;;18.56;100.00
33189;BME280;52601;53.070;10.600;2023-08-07T05:04:33;100287.28;;;18.56;100.00
33189;BME280;52601;53.070;10.600;2023-08-07T05:07:19;100278.97;;;18.89;100.00
33189;BME280;52601;53.070;10.600;2023-08-07T05:10:04;100265.56;;;19.10;100.00
33189;BME280;52601;53.070;10.600;2023-08-07T05:12:49;100263.56;;;18.73;100.00
33189;BME280;52601;53.070;10.600;2023-08-07T05:15:40;100273.31;;;18.63;100.00
33189;BME280;52601;53.070;10.600;2023-08-07T05:18:26;100280.94;;;18.17;100.00
33189;BME280;52601;53.070;10.600;2023-08-07T05:21:11;100294.59;;;18.33;100.00
33189;BME280;52601;53.070;10.600;2023-08-07T05:23:57;100276.72;;;18.75;100.00
33189;BME280;52601;53.070;10.600;2023-08-07T05:26:42;100281.75;;;18.78;100.00
33189;BME280;52601;53.070;10.600;2023-08-07T05:29:28;100268.06;;;18.82;100.00
33189;BME280;52601;53.070;10.600;2023-08-07T05:32:13;100265.38;;;18.73;100.00
33189;BME280;52601;53.070;10.600;2023-08-07T05:34:59;100273.53;;;18.90;100.00
33189;BME280;52601;53.070;10.600;2023-08-07T05:37:45;100267.13;;;19.03;100.00
33189;BME280;52601;53.070;10.600;2023-08-07T05:40:30;100261.59;;;18.75;100.00
33189;BME280;52601;53.070;10.600;2023-08-07T05:43:16;100273.78;;;18.87;100.00
33189;BME280;52601;53.070;10.600;2023-08-07T05:46:01;100272.22;;;18.75;100.00
33189;BME280;52601;53.070;10.600;2023-08-07T05:48:47;100269.31;;;18.88;100.00
33189;BME280;52601;53.070;10.600;2023-08-07T05:51:32;100272.38;;;18.83;100.00
33189;BME280;52601;53.070;10.600;2023-08-07T05:54:18;100276.56;;;18.76;100.00
33189;BME280;52601;53.070;10.600;2023-08-07T05:57:03;100280.38;;;18.93;100.00
33189;BME280;52601;53.070;10.600;2023-08-07T05:59:49;100279.41;;;19.04;100.00
33189;BME280;52601;53.070;10.600;2023-08-07T06:02:34;100274.94;;;18.85;100.00
33189;BME280;52601;53.070;10.600;2023-08-07T06:05:20;100275.66;;;19.16;100.00
33189;BME280;52601;53.070;10.600;2023-08-07T06:08:06;100277.59;;;19.14;100.00
33189;BME280;52601;53.070;10.600;2023-08-07T06:10:51;100258.56;;;19.28;100.00
33189;BME280;52601;53.070;10.600;2023-08-07T06:13:36;100264.22;;;19.44;100.00
33189;BME280;52601;53.070;10.600;2023-08-07T06:16:22;100253.50;;;19.82;100.00
33189;BME280;52601;53.070;10.600;2023-08-07T06:19:08;100245.25;;;20.31;100.00
33189;BME280;52601;53.070;10.600;2023-08-07T06:22:05;100221.03;;;20.52;100.00
33189;BME280;52601;53.070;10.600;2023-08-07T06:24:50;100210.22;;;20.71;100.00
33189;BME280;52601;53.070;10.600;2023-08-07T06:27:35;100207.94;;;20.76;100.00
33189;BME280;52601;53.070;10.600;2023-08-07T06:30:21;100211.97;;;20.63;100.00
33189;BME280;52601;53.070;10.600;2023-08-07T06:33:06;100222.72;;;20.16;100.00
33189;BME280;52601;53.070;10.600;2023-08-07T06:35:52;100237.50;;;20.38;100.00
33189;BME280;52601;53.070;10.600;2023-08-07T06:38:37;100231.44;;;20.45;100.00
33189;BME280;52601;53.070;10.600;2023-08-07T06:41:23;100233.53;;;20.05;100.00
33189;BME280;52601;53.070;10.600;2023-08-07T06:44:08;100251.59;;;20.11;100.00
33189;BME280;52601;53.070;10.600;2023-08-07T06:46:54;100237.56;;;20.19;100.00
33189;BME280;52601;53.070;10.600;2023-08-07T06:49:39;100209.16;;;21.52;100.00
33189;BME280;52601;53.070;10.600;2023-08-07T06:52:24;100204.06;;;21.41;100.00
33189;BME280;52601;53.070;10.600;2023-08-07T06:55:10;100213.34;;;21.11;100.00
33189;BME280;52601;53.070;10.600;2023-08-07T06:57:55;100216.41;;;20.89;100.00
33189;BME280;52601;53.070;10.600;2023-08-07T07:00:40;100207.16;;;21.11;100.00
33189;BME280;52601;53.070;10.600;2023-08-07T07:03:26;100203.25;;;21.23;100.00
33189;BME280;52601;53.070;10.600;2023-08-07T07:06:11;100206.88;;;21.57;100.00
33189;BME280;52601;53.070;10.600;2023-08-07T07:08:57;100197.88;;;22.17;100.00
33189;BME280;52601;53.070;10.600;2023-08-07T07:11:43;100170.50;;;23.78;100.00
33189;BME280;52601;53.070;10.600;2023-08-07T07:14:28;100151.94;;;25.22;100.00
33189;BME280;52601;53.070;10.600;2023-08-07T07:17:14;100151.38;;;25.12;100.00
33189;BME280;52601;53.070;10.600;2023-08-07T07:19:59;100155.88;;;24.97;100.00
33189;BME280;52601;53.070;10.600;2023-08-07T07:22:45;100160.72;;;24.01;100.00
33189;BME280;52601;53.070;10.600;2023-08-07T07:25:30;100167.22;;;23.44;100.00
33189;BME280;52601;53.070;10.600;2023-08-07T07:28:15;100166.50;;;22.69;100.00
33189;BME280;52601;53.070;10.600;2023-08-07T07:31:01;100184.75;;;23.62;100.00
33189;BME280;52601;53.070;10.600;2023-08-07T07:33:46;100169.41;;;23.56;100.00
33189;BME280;52601;53.070;10.600;2023-08-07T07:36:32;100159.78;;;23.78;100.00
33189;BME280;52601;53.070;10.600;2023-08-07T07:39:17;100152.31;;;24.82;100.00
33189;BME280;52601;53.070;10.600;2023-08-07T07:42:03;100152.47;;;24.80;100.00
33189;BME280;52601;53.070;10.600;2023-08-07T07:44:49;100152.53;;;25.69;100.00
33189;BME280;52601;53.070;10.600;2023-08-07T07:47:35;100143.22;;;27.50;89.96
33189;BME280;52601;53.070;10.600;2023-08-07T07:50:20;100150.88;;;25.83;95.50
33189;BME280;52601;53.070;10.600;2023-08-07T07:53:06;100145.91;;;25.05;100.00
33189;BME280;52601;53.070;10.600;2023-08-07T07:55:51;100153.22;;;24.35;100.00
33189;BME280;52601;53.070;10.600;2023-08-07T07:58:36;100159.63;;;23.71;100.00
33189;BME280;52601;53.070;10.600;2023-08-07T08:01:22;100175.72;;;23.63;100.00
33189;BME280;52601;53.070;10.600;2023-08-07T08:04:08;100172.28;;;24.02;100.00
33189;BME280;52601;53.070;10.600;2023-08-07T08:06:55;100168.00;;;23.68;100.00
33189;BME280;52601;53.070;10.600;2023-08-07T08:09:40;100173.28;;;23.92;100.00
33189;BME280;52601;53.070;10.600;2023-08-07T08:12:26;100173.16;;;24.33;100.00
33189;BME280;52601;53.070;10.600;2023-08-07T08:15:11;100177.94;;;23.36;100.00
33189;BME280;52601;53.070;10.600;2023-08-07T08:17:57;100182.44;;;23.51;100.00
33189;BME280;52601;53.070;10.600;2023-08-07T08:20:42;100178.56;;;25.83;100.00
33189;BME280;52601;53.070;10.600;2023-08-07T08:23:27;100160.44;;;27.83;84.87
33189;BME280;52601;53.070;10.600;2023-08-07T08:26:13;100172.22;;;28.03;80.16
33189;BME280;52601;53.070;10.600;2023-08-07T08:28:58;100176.31;;;29.07;76.16
33189;BME280;52601;53.070;10.600;2023-08-07T08:31:43;100176.75;;;28.50;79.82
33189;BME280;52601;53.070;10.600;2023-08-07T08:34:29;100175.03;;;26.41;84.44
33189;BME280;52601;53.070;10.600;2023-08-07T08:37:14;100183.41;;;24.29;92.09
33189;BME280;52601;53.070;10.600;2023-08-07T08:40:00;100206.34;;;22.96;100.00
33189;BME280;52601;53.070;10.600;2023-08-07T08:42:45;100217.75;;;22.15;100.00
33189;BME280;52601;53.070;10.600;2023-08-07T08:45:32;100218.53;;;23.15;100.00
33189;BME280;52601;53.070;10.600;2023-08-07T08:48:19;100197.00;;;25.12;100.00
33189;BME280;52601;53.070;10.600;2023-08-07T08:51:08;100216.31;;;24.85;95.17
33189;BME280;52601;53.070;10.600;2023-08-07T08:53:54;100215.84;;;26.01;87.89
33189;BME280;52601;53.070;10.600;2023-08-07T08:56:41;100198.44;;;26.26;84.06
33189;BME280;52601;53.070;10.600;2023-08-07T08:59:27;100187.22;;;26.08;80.26
33189;BME280;52601;53.070;10.600;2023-08-07T09:02:13;100212.59;;;25.91;80.37
33189;BME280;52601;53.070;10.600;2023-08-07T09:04:58;100199.69;;;25.34;81.74
33189;BME280;52601;53.070;10.600;2023-08-07T09:07:44;100217.28;;;25.74;82.35
33189;BME280;52601;53.070;10.600;2023-08-07T09:10:31;100208.47;;;24.83;82.62
33189;BME280;52601;53.070;10.600;2023-08-07T09:13:17;100212.09;;;24.90;86.61
33189;BME280;52601;53.070;10.600;2023-08-07T09:16:07;100216.66;;;24.51;84.28
33189;BME280;52601;53.070;10.600;2023-08-07T09:18:54;100217.81;;;24.18;83.21
33189;BME280;52601;53.070;10.600;2023-08-07T09:21:40;100217.38;;;23.74;90.78
33189;BME280;52601;53.070;10.600;2023-08-07T09:24:26;100230.94;;;23.64;92.82
33189;BME280;52601;53.070;10.600;2023-08-07T09:27:12;100228.25;;;23.00;97.55
33189;BME280;52601;53.070;10.600;2023-08-07T09:29:57;100219.25;;;23.57;100.00
33189;BME280;52601;53.070;10.600;2023-08-07T09:32:43;100232.81;;;23.32;97.11
33189;BME280;52601;53.070;10.600;2023-08-07T09:35:29;100242.69;;;23.55;99.55
33189;BME280;52601;53.070;10.600;2023-08-07T09:38:14;100235.97;;;23.67;99.83
33189;BME280;52601;53.070;10.600;2023-08-07T09:41:00;100254.59;;;22.87;100.00
33189;BME280;52601;53.070;10.600;2023-08-07T09:43:45;100267.38;;;22.25;100.00
33189;BME280;52601;53.070;10.600;2023-08-07T09:46:31;100252.22;;;22.68;100.00
33189;BME280;52601;53.070;10.600;2023-08-07T09:49:22;100255.56;;;23.44;100.00
33189;BME280;52601;53.070;10.600;2023-08-07T09:52:17;100259.69;;;23.86;100.00
33189;BME280;52601;53.070;10.600;2023-08-07T09:55:03;100247.34;;;23.69;97.47
33189;BME280;52601;53.070;10.600;2023-08-07T09:57:50;100262.47;;;24.72;98.79
33189;BME280;52601;53.070;10.600;2023-08-07T10:00:35;100260.47;;;25.05;90.93
33189;BME280;52601;53.070;10.600;2023-08-07T10:03:21;100262.06;;;25.82;87.58
33189;BME280;52601;53.070;10.600;2023-08-07T10:06:07;100255.69;;;26.70;79.42
33189;BME280;52601;53.070;10.600;2023-08-07T10:08:53;100250.56;;;25.28;78.43
33189;BME280;52601;53.070;10.600;2023-08-07T10:11:39;100263.66;;;25.53;79.20
33189;BME280;52601;53.070;10.600;2023-08-07T10:14:25;100266.06;;;24.02;86.12
33189;BME280;52601;53.070;10.600;2023-08-07T10:17:10;100289.44;;;23.11;90.05
33189;BME280;52601;53.070;10.600;2023-08-07T10:19:56;100287.09;;;21.99;97.77
33189;BME280;52601;53.070;10.600;2023-08-07T10:22:42;100291.09;;;21.77;98.75
33189;BME280;52601;53.070;10.600;2023-08-07T10:25:28;100265.44;;;23.51;92.24
33189;BME280;52601;53.070;10.600;2023-08-07T10:28:15;100267.56;;;26.03;73.02
33189;BME280;52601;53.070;10.600;2023-08-07T10:31:01;100262.84;;;27.77;67.36
33189;BME280;52601;53.070;10.600;2023-08-07T10:33:47;100260.75;;;28.68;59.29
33189;BME280;52601;53.070;10.600;2023-08-07T10:36:32;100269.44;;;27.74;61.77
33189;BME280;52601;53.070;10.600;2023-08-07T10:39:18;100272.38;;;25.93;67.21
33189;BME280;52601;53.070;10.600;2023-08-07T10:42:04;100247.63;;;25.37;69.47
33189;BME280;52601;53.070;10.600;2023-08-07T10:44:50;100250.66;;;28.90;63.33
33189;BME280;52601;53.070;10.600;2023-08-07T10:47:36;100254.31;;;31.54;52.03
33189;BME280;52601;53.070;10.600;2023-08-07T10:50:27;100254.22;;;31.05;45.61
33189;BME280;52601;53.070;10.600;2023-08-07T10:53:18;100256.06;;;31.11;47.00
33189;BME280;52601;53.070;10.600;2023-08-07T10:56:04;100251.34;;;32.66;45.90
33189;BME280;52601;53.070;10.600;2023-08-07T10:58:52;100251.34;;;32.11;46.16
33189;BME280;52601;53.070;10.600;2023-08-07T11:04:23;100243.31;;;29.84;49.46
33189;BME280;52601;53.070;10.600;2023-08-07T11:07:11;100261.59;;;26.30;58.88
33189;BME280;52601;53.070;10.600;2023-08-07T11:10:07;100286.13;;;25.30;64.50
33189;BME280;52601;53.070;10.600;2023-08-07T11:12:53;100260.28;;;25.74;67.19
33189;BME280;52601;53.070;10.600;2023-08-07T11:15:43;100260.59;;;25.94;63.03
33189;BME280;52601;53.070;10.600;2023-08-07T11:18:30;100267.44;;;27.55;56.42
33189;BME280;52601;53.070;10.600;2023-08-07T11:21:15;100265.16;;;29.95;49.73
33189;BME280;52601;53.070;10.600;2023-08-07T11:24:01;100262.00;;;30.31;42.89
33189;BME280;52601;53.070;10.600;2023-08-07T11:26:46;100243.31;;;30.74;42.93
33189;BME280;52601;53.070;10.600;2023-08-07T11:29:32;100252.69;;;30.84;43.44
33189;BME280;52601;53.070;10.600;2023-08-07T11:32:18;100256.84;;;30.74;46.25
33189;BME280;52601;53.070;10.600;2023-08-07T11:35:05;100254.53;;;29.54;47.43
33189;BME280;52601;53.070;10.600;2023-08-07T11:37:51;100258.50;;;29.98;46.92
33189;BME280;52601;53.070;10.600;2023-08-07T11:40:39;100262.25;;;28.84;50.99
33189;BME280;52601;53.070;10.600;2023-08-07T11:43:24;100281.50;;;28.34;52.73
33189;BME280;52601;53.070;10.600;2023-08-07T11:46:12;100279.56;;;26.44;59.42
33189;BME280;52601;53.070;10.600;2023-08-07T11:48:58;100280.34;;;25.18;65.70
33189;BME280;52601;53.070;10.600;2023-08-07T11:51:43;100281.97;;;23.79;71.60
33189;BME280;52601;53.070;10.600;2023-08-07T11:54:29;100275.78;;;23.78;70.74
33189;BME280;52601;53.070;10.600;2023-08-07T11:57:17;100274.59;;;23.97;67.53
33189;BME280;52601;53.070;10.600;2023-08-07T12:00:07;100273.69;;;27.20;56.85
33189;BME280;52601;53.070;10.600;2023-08-07T12:02:58;100261.16;;;30.24;52.44
33189;BME280;52601;53.070;10.600;2023-08-07T12:05:43;100269.50;;;30.93;45.23
33189;BME280;52601;53.070;10.600;2023-08-07T12:08:32;100278.22;;;27.83;49.05
33189;BME280;52601;53.070;10.600;2023-08-07T12:11:19;100283.56;;;26.48;57.91
33189;BME280;52601;53.070;10.600;2023-08-07T12:14:06;100292.25;;;24.93;63.45
33189;BME280;52601;53.070;10.600;2023-08-07T12:16:51;100300.56;;;23.64;69.73
33189;BME280;52601;53.070;10.600;2023-08-07T12:19:37;100291.22;;;23.44;76.25
33189;BME280;52601;53.070;10.600;2023-08-07T12:22:23;100308.13;;;22.95;80.65
33189;BME280;52601;53.070;10.600;2023-08-07T12:25:08;100321.28;;;22.47;91.81
33189;BME280;52601;53.070;10.600;2023-08-07T12:27:54;100313.06;;;24.28;84.64
33189;BME280;52601;53.070;10.600;2023-08-07T12:30:39;100298.19;;;25.34;78.59
33189;BME280;52601;53.070;10.600;2023-08-07T12:33:24;100306.06;;;24.66;76.69
33189;BME280;52601;53.070;10.600;2023-08-07T12:36:10;100314.47;;;23.84;78.24
33189;BME280;52601;53.070;10.600;2023-08-07T12:38:58;100316.63;;;23.32;79.51
33189;BME280;52601;53.070;10.600;2023-08-07T12:41:44;100316.63;;;23.72;79.22
33189;BME280;52601;53.070;10.600;2023-08-07T12:44:49;100317.28;;;24.86;71.72
33189;BME280;52601;53.070;10.600;2023-08-07T12:47:34;100321.97;;;26.42;67.23
33189;BME280;52601;53.070;10.600;2023-08-07T12:50:20;100307.78;;;26.77;63.26
33189;BME280;52601;53.070;10.600;2023-08-07T12:53:06;100303.22;;;27.49;59.24
33189;BME280;52601;53.070;10.600;2023-08-07T12:55:52;100314.84;;;26.78;63.03
33189;BME280;52601;53.070;10.600;2023-08-07T12:58:37;100327.72;;;25.65;69.49
33189;BME280;52601;53.070;10.600;2023-08-07T13:01:26;100317.44;;;25.37;66.74
33189;BME280;52601;53.070;10.600;2023-08-07T13:27:37;100352.50;;;27.43;61.67
33189;BME280;52601;53.070;10.600;2023-08-07T13:30:22;100356.16;;;29.23;51.35
33189;BME280;52601;53.070;10.600;2023-08-07T13:33:08;100319.56;;;30.71;46.72
33189;BME280;52601;53.070;10.600;2023-08-07T13:35:54;100313.22;;;30.00;44.49
33189;BME280;52601;53.070;10.600;2023-08-07T13:38:40;100335.25;;;28.56;47.95
33189;BME280;52601;53.070;10.600;2023-08-07T13:41:26;100341.38;;;27.17;51.88
33189;BME280;52601;53.070;10.600;2023-08-07T13:44:11;100346.25;;;25.97;55.17
33189;BME280;52601;53.070;10.600;2023-08-07T13:47:00;100352.66;;;24.89;59.93
33189;BME280;52601;53.070;10.600;2023-08-07T13:49:45;100380.59;;;24.40;64.14
33189;BME280;52601;53.070;10.600;2023-08-07T13:52:31;100385.75;;;23.53;64.39
33189;BME280;52601;53.070;10.600;2023-08-07T13:55:16;100400.34;;;22.83;68.61
33189;BME280;52601;53.070;10.600;2023-08-07T13:58:02;100410.44;;;22.97;73.11
33189;BME280;52601;53.070;10.600;2023-08-07T14:00:48;100410.38;;;24.69;67.41
33189;BME280;52601;53.070;10.600;2023-08-07T14:03:34;100404.00;;;25.78;60.91
33189;BME280;52601;53.070;10.600;2023-08-07T14:06:20;100396.78;;;25.56;62.04
33189;BME280;52601;53.070;10.600;2023-08-07T14:09:05;100413.03;;;24.85;63.30
33189;BME280;52601;53.070;10.600;2023-08-07T14:11:51;100405.88;;;24.61;64.07
33189;BME280;52601;53.070;10.600;2023-08-07T14:14:36;100411.72;;;24.65;66.36
33189;BME280;52601;53.070;10.600;2023-08-07T14:17:22;100416.25;;;24.72;64.98
33189;BME280;52601;53.070;10.600;2023-08-07T14:20:08;100448.84;;;23.55;71.05
33189;BME280;52601;53.070;10.600;2023-08-07T14:22:53;100466.88;;;21.99;91.78
33189;BME280;52601;53.070;10.600;2023-08-07T14:25:53;100483.34;;;21.23;100.00
33189;BME280;52601;53.070;10.600;2023-08-07T14:28:38;100486.50;;;21.63;100.00
33189;BME280;52601;53.070;10.600;2023-08-07T14:31:24;100482.28;;;21.43;100.00
33189;BME280;52601;53.070;10.600;2023-08-07T14:34:10;100478.38;;;20.91;100.00